• Join FlightAware (Why Join?)
  • Login
  • US Flag 
04:47PM EDT


 

Airport Tracker/Info


-or-


 

Live Flight TrackerFlight Track Log ✈ ACA620 ✈ 09-Apr-2013 ✈ CYYZ - CYHZ

Flight Track Log - Related Links

Times and Time Zones

All times are in EDT time to prevent confusion due to time zone crossing. See the ACA620 flight status page for this flight to view local times or setup timezone preferences in your user account.

Time Position Orientation Groundspeed Altitude Reporting Facility
EDT Latitude Longitude Course Direction KTS MPH feet Rate Location/Type
07:34PM 43.5500 -79.6833 200° South 240 276 5,800  Level Toronto Center
07:35PM 43.5167 -79.6167 125° Southeast 270 311 5,900  Climbing Toronto Center
07:36PM 44.0339 -77.0009 72° East  Level Estimated
07:36PM 43.5000 -79.5000 101° East 290 334 5,900  Level Toronto Center
07:37PM 44.1152 -76.8521 53° Northeast  Level FlightAware Approximate
07:37PM 43.5333 -79.4000 65° Northeast 300 345 6,100  Level Toronto Center
07:38PM 44.1885 -76.7172 53° Northeast  Level FlightAware Approximate
07:38PM 43.5500 -79.2667 80° East 320 368 9,300  Level Toronto Center
07:43PM 43.7680 -78.4910 80° East 474 545 24,300 2,580 Climbing FlightAware
07:44PM 43.8030 -78.3780 67° East 486 559 25,700 2,160 Climbing FlightAware
07:45PM 43.8420 -78.2480 67° East 494 568 27,400 2,100 Climbing FlightAware
07:45PM 43.8780 -78.1290 67° East 505 581 28,700 1,920 Climbing FlightAware
07:46PM 43.9140 -78.0110 67° East 512 589 30,000 2,220 Climbing FlightAware
07:47PM 43.9550 -77.8740 67° East 504 580 31,900 2,160 Climbing FlightAware
07:47PM 43.9890 -77.7620 67° East 503 579 33,100 1,800 Climbing FlightAware
07:48PM 44.0260 -77.6350 68° East 504 580 34,300 1,320 Climbing FlightAware
07:49PM 44.0660 -77.5010 67° East 505 581 35,000 480 Climbing FlightAware
07:49PM 44.1020 -77.3810 67° East 507 583 35,000  Level FlightAware
07:50PM 44.1470 -77.2480 65° Northeast 504 580 35,000  Level FlightAware
07:51PM 44.1850 -77.1330 65° Northeast 502 578 35,000  Level FlightAware
07:52PM 44.2290 -77.0000 65° Northeast 499 574 35,000  Level FlightAware
07:52PM 44.2660 -76.8860 66° East 498 573 35,000  Level FlightAware
07:53PM 44.3050 -76.7680 65° Northeast 498 573 35,000  Level FlightAware
07:54PM 44.3480 -76.6360 65° Northeast 499 574 35,000  Level FlightAware
07:54PM 44.3830 -76.5250 66° East 500 575 35,000  Level FlightAware
07:55PM 44.4300 -76.3790 66° East 502 578 35,000  Level FlightAware
07:56PM 44.4670 -76.2630 66° East 500 575 35,000  Level FlightAware
07:57PM 44.5200 -76.0950 66° East 502 578 35,000  Level FlightAware
07:57PM 44.5610 -75.9660 66° East 503 579 35,000  Level FlightAware
07:58PM 44.5980 -75.8480 66° East 504 580 35,000  Level FlightAware
07:59PM 44.6360 -75.7240 67° East 505 581 35,000  Level FlightAware
08:00PM 44.6770 -75.5910 67° East 508 585 35,000  Level FlightAware
08:00PM 44.7110 -75.4660 69° East 510 587 35,000  Level FlightAware
08:01PM 44.7490 -75.3220 70° East 511 588 35,000  Level FlightAware
08:02PM 44.7830 -75.1980 69° East 511 588 35,000  Level FlightAware
08:02PM 44.8170 -75.0730 69° East 512 589 35,000  Level FlightAware
08:03PM 44.8530 -74.9390 69° East 514 592 35,000  Level FlightAware
08:04PM 44.8870 -74.8110 69° East 514 592 35,000  Level FlightAware
08:04PM 44.9250 -74.6670 70° East 516 594 35,000  Level FlightAware
08:05PM 44.9580 -74.5420 70° East 516 594 35,000  Level FlightAware
08:06PM 44.9920 -74.4160 69° East 516 594 35,000  Level FlightAware
08:07PM 45.0240 -74.2730 72° East 525 604 35,000  Level FlightAware
08:07PM 45.0500 -74.1380 75° East 527 606 35,000  Level FlightAware
08:08PM 45.0730 -74.0070 76° East 527 606 35,000  Level FlightAware
08:09PM 45.1010 -73.8530 76° East 528 608 35,000  Level FlightAware
08:09PM 45.1240 -73.7200 76° East 527 606 35,000  Level FlightAware
08:10PM 45.1510 -73.5720 75° East 527 606 35,000  Level FlightAware
08:11PM 45.1740 -73.4370 76° East 527 606 35,000  Level FlightAware
08:11PM 45.2010 -73.2860 76° East 528 608 35,000  Level FlightAware
08:12PM 45.2240 -73.1490 77° East 528 608 35,000  Level FlightAware
08:13PM 45.2480 -73.0150 76° East 527 606 35,000  Level FlightAware
08:14PM 45.2730 -72.8670 76° East 526 605 35,000  Level FlightAware
08:14PM 45.2950 -72.7340 77° East 527 606 35,000  Level FlightAware
08:15PM 45.3170 -72.5770 79° East 534 615 35,000  Level FlightAware
08:16PM 45.3260 -72.4400 85° East 538 619 35,000  Level FlightAware
08:16PM 45.3340 -72.3020 85° East 539 620 35,000  Level FlightAware
08:17PM 45.3430 -72.1390 85° East 539 620 35,000  Level FlightAware
08:18PM 45.3333 -71.9972 85° East 537 618 35,000  Level Boston Center
08:18PM 45.3333 -71.9000 90° East 540 621 35,000  Level Montreal Center
08:19PM 45.3333 -71.6833 90° East 540 621 35,000  Level Montreal Center
08:20PM 45.3558 -71.5542 76° East 537 618 35,000  Level Boston Center
08:21PM 45.3644 -71.3442 87° East 537 618 35,000  Level Boston Center
08:21PM 45.3500 -71.2500 102° East 540 621 35,000  Level Montreal Center
08:22PM 45.3667 -71.0500 83° East 530 610 35,000  Level Montreal Center
08:23PM 45.3500 -70.8167 96° East 540 621 35,000  Level Montreal Center
08:24PM 45.3500 -70.6833 90° East 540 621 35,000  Level Moncton Center
08:25PM 45.3333 -70.4667 96° East 540 621 35,000  Level Moncton Center
08:26PM 45.3375 -70.3025 88° East 537 618 35,000  Level Boston Center
08:27PM 45.3250 -70.0933 95° East 537 618 35,000  Level Boston Center
08:28PM 45.3122 -69.8842 95° East 537 618 35,000  Level Boston Center
08:34PM 45.2500 -68.5520 95° East 538 619 35,000  Level FlightAware
08:35PM 45.2400 -68.4120 96° East 538 619 35,000  Level FlightAware
08:35PM 45.2290 -68.2510 95° East 540 621 35,000  Level FlightAware
08:36PM 45.2180 -68.1090 96° East 541 623 35,000  Level FlightAware
08:37PM 45.2060 -67.9540 96° East 540 621 35,000  Level FlightAware
08:38PM 45.1960 -67.8150 96° East 539 620 35,000  Level FlightAware
08:38PM 45.1860 -67.6730 96° East 539 620 35,000  Level FlightAware
08:39PM 45.1730 -67.5140 97° East 540 621 35,000  Level FlightAware
08:40PM 45.1580 -67.3310 97° East 540 621 35,000  Level FlightAware
08:41PM 45.1460 -67.1940 97° East 543 625 35,000  Level FlightAware
08:41PM 45.1320 -67.0310 97° East 544 626 35,000  Level FlightAware
08:42PM 45.1200 -66.8930 97° East 543 625 35,000  Level FlightAware
08:43PM 45.1070 -66.7500 97° East 543 625 35,000  Level FlightAware
08:43PM 45.0930 -66.5920 97° East 542 624 35,000 -240 Level FlightAware
08:44PM 45.0810 -66.4540 97° East 539 620 34,700 -720 Descending FlightAware
08:45PM 45.0660 -66.2960 98° East 534 615 34,000 -540 Descending FlightAware
08:45PM 45.0540 -66.1600 97° East 527 606 34,000 -120 Level FlightAware
08:46PM 45.0390 -66.0050 98° East 524 603 33,900 -780 Descending FlightAware
08:47PM 45.0260 -65.8690 98° East 516 594 32,900 -1,980 Descending FlightAware
08:48PM 45.0110 -65.7190 98° East 523 602 31,100 -2,280 Descending FlightAware
08:48PM 44.9980 -65.5810 98° East 522 601 29,700 -1,920 Descending FlightAware
08:49PM 44.9830 -65.4320 98° East 512 589 28,400 -2,100 Descending FlightAware
08:50PM 44.9690 -65.3010 99° East 487 560 26,800 -2,280 Descending FlightAware
08:50PM 44.9570 -65.1820 98° East 480 552 25,400 -1,980 Descending FlightAware
08:51PM 44.9480 -65.0310 95° East 459 528 24,000 -1,800 Descending FlightAware
08:52PM 44.9480 -64.9160 90° East 434 499 22,900 -1,680 Descending FlightAware
08:53PM 44.9490 -64.7980 89° East 388 447 21,700 -1,500 Descending FlightAware
08:53PM 44.9490 -64.6970 90° East 383 441 20,800 -1,500 Descending FlightAware
08:54PM 44.9500 -64.5950 89° East 381 438 19,700 -1,560 Descending FlightAware
08:54PM 44.9500 -64.5110 90° East 379 436 18,900 -1,440 Descending FlightAware
08:55PM 44.9510 -64.3930 89° East 377 434 17,700 -1,140 Descending FlightAware
08:56PM 44.9510 -64.2280 90° East 376 433 16,700 -600 Descending FlightAware
08:57PM 44.9510 -64.1440 90° East 376 433 16,700  Level FlightAware
08:58PM 44.9510 -64.0600 90° East 376 433 16,700  Level FlightAware
08:58PM 44.9510 -63.9770 90° East 376 433 16,700  Level FlightAware
08:59PM 44.9510 -63.8720 90° East 376 433 16,700 -4,020 Level FlightAware
09:00PM 44.9670 -63.7460 80° East 326 375 10,700 -4,920 Descending FlightAware
09:01PM 44.9810 -63.6580 77° East 295 339 9,800 -1,080 Descending FlightAware
09:01PM 44.9860 -63.6270 77° East 279 321 9,500 -960 Descending FlightAware
09:01PM 44.9950 -63.5740 76° East 262 302 9,100 -900 Descending FlightAware
09:02PM 45.0030 -63.5470 67° East 260 299 8,900 -360 Descending FlightAware
09:02PM 45.0190 -63.5170 53° Northeast 261 300 8,800 -120 Descending FlightAware
09:03PM 45.0320 -63.4940 51° Northeast 261 300 8,800  Level FlightAware
09:03PM 45.0500 -63.4590 54° Northeast 261 300 8,800  Level FlightAware
09:04PM 45.0690 -63.4240 52° Northeast 261 300 8,800 -2,220 Level FlightAware
09:04PM 45.0833 -63.4333 52° Northeast 250 288 6,900 -2,280 Descending Moncton Center
09:05PM 45.1333 -63.3833 35° Northeast 220 253 5,700 -1,320 Descending Moncton Center
09:06PM 45.1167 -63.3000 106° East 190 219 4,300 -1,200 Descending Moncton Center
09:07PM 45.0667 -63.3000 180° South 170 196 3,300 -600 Descending Moncton Center
09:08PM 45.0333 -63.3333 215° Southwest 170 196 3,200 -60 Descending Moncton Center
09:09PM 45.0000 -63.3833 227° Southwest 160 184 3,200 -300 Level Moncton Center
09:10PM 44.9500 -63.4000 193° South 160 184 2,700 -720 Descending Moncton Center
09:11PM 44.9167 -63.4500 227° Southwest 160 184 1,800 -900 Descending Moncton Center